createdAt,value
2018-11-21T00:00:48.554Z,1.57
2018-11-21T00:03:17.708Z,1.34
2018-11-21T00:05:46.968Z,1.43
2018-11-21T00:08:16.565Z,1.42
2018-11-21T00:10:45.884Z,1.50
2018-11-21T00:13:15.057Z,1.42
2018-11-21T00:15:44.255Z,1.60
2018-11-21T00:18:13.408Z,1.65
2018-11-21T00:20:42.604Z,1.65
2018-11-21T00:23:11.774Z,1.91
2018-11-21T00:25:40.961Z,1.84
2018-11-21T00:28:10.228Z,1.82
2018-11-21T00:30:39.504Z,1.75
2018-11-21T00:33:08.668Z,1.67
2018-11-21T00:35:37.923Z,1.61
2018-11-21T00:38:07.076Z,1.51
2018-11-21T00:40:36.271Z,1.49
2018-11-21T00:43:05.621Z,1.77
2018-11-21T00:45:34.816Z,1.86
2018-11-21T00:48:03.976Z,1.52
2018-11-21T00:50:33.167Z,1.47
2018-11-21T00:53:02.337Z,1.72
2018-11-21T00:55:31.596Z,1.79
2018-11-21T00:58:00.763Z,1.73
2018-11-21T01:00:30.338Z,1.81
2018-11-21T01:02:59.701Z,2.19
2018-11-21T01:05:28.880Z,2.09
2018-11-21T01:07:58.088Z,1.77
2018-11-21T01:10:27.274Z,1.52
2018-11-21T01:12:56.482Z,1.32
2018-11-21T01:15:25.681Z,1.36
2018-11-21T01:17:55.082Z,1.54
2018-11-21T01:20:24.474Z,1.45
2018-11-21T01:22:53.682Z,1.41
2018-11-21T01:25:22.985Z,1.65
2018-11-21T01:27:52.588Z,1.45
2018-11-21T01:30:21.736Z,1.49
2018-11-21T01:32:50.926Z,1.46
2018-11-21T01:35:20.072Z,1.48
2018-11-21T01:37:49.268Z,1.35
2018-11-21T01:40:18.470Z,1.35
2018-11-21T01:42:47.666Z,1.44
2018-11-21T01:45:16.967Z,1.41
2018-11-21T01:47:46.190Z,1.24
2018-11-21T01:50:15.350Z,1.12
2018-11-21T01:52:44.659Z,1.18
2018-11-21T01:55:13.819Z,1.13
2018-11-21T01:57:43.462Z,1.28
2018-11-21T02:00:13.169Z,1.15
2018-11-21T02:02:42.470Z,1.15
2018-11-21T02:05:11.652Z,1.09
2018-11-21T02:07:40.927Z,1.13
2018-11-21T02:10:10.088Z,1.20
2018-11-21T02:12:39.670Z,1.05
2018-11-21T02:15:08.882Z,1.15
2018-11-21T02:17:38.162Z,1.16
2018-11-21T02:20:08.484Z,1.12
2018-11-21T02:22:37.751Z,0.97
2018-11-21T02:25:07.816Z,0.96
2018-11-21T02:27:37.198Z,0.99
2018-11-21T02:30:07.792Z,0.98
2018-11-21T02:32:36.964Z,0.91
2018-11-21T02:35:07.465Z,1.09
2018-11-21T02:37:36.960Z,0.98
2018-11-21T02:40:06.872Z,1.00
2018-11-21T02:42:36.175Z,0.88
2018-11-21T02:45:06.003Z,0.87
2018-11-21T02:47:35.166Z,0.98
2018-11-21T02:50:04.364Z,1.07
2018-11-21T02:52:33.555Z,1.24
2018-11-21T02:55:02.875Z,0.98
2018-11-21T02:57:33.380Z,0.98
2018-11-21T03:00:06.080Z,1.09
2018-11-21T03:02:35.242Z,1.01
2018-11-21T03:05:04.574Z,0.98
2018-11-21T03:07:33.755Z,1.04
2018-11-21T03:10:03.001Z,1.13
2018-11-21T03:12:32.444Z,1.11
2018-11-21T03:15:01.644Z,1.21
2018-11-21T03:17:30.788Z,1.21
2018-11-21T03:19:59.975Z,1.09
2018-11-21T03:22:29.980Z,0.97
2018-11-21T03:24:59.206Z,0.94
2018-11-21T03:27:28.527Z,0.98
2018-11-21T03:29:57.789Z,0.96
2018-11-21T03:32:26.997Z,0.91
2018-11-21T03:34:56.526Z,0.98
2018-11-21T03:37:25.688Z,0.93
2018-11-21T03:39:54.967Z,0.93
2018-11-21T03:42:24.164Z,1.05
2018-11-21T03:44:53.385Z,1.06
2018-11-21T03:47:22.549Z,1.09
2018-11-21T03:49:51.755Z,1.08
2018-11-21T03:52:20.978Z,1.00
2018-11-21T03:54:50.252Z,1.02
2018-11-21T03:57:19.767Z,1.00
2018-11-21T03:59:48.924Z,0.89
2018-11-21T04:02:18.132Z,0.88
2018-11-21T04:04:47.304Z,1.07
2018-11-21T04:07:16.518Z,1.05
2018-11-21T04:09:45.845Z,0.95
2018-11-21T04:12:15.046Z,1.08
2018-11-21T04:14:44.203Z,1.20
2018-11-21T04:17:13.431Z,1.23
2018-11-21T04:19:43.047Z,1.08
2018-11-21T04:22:12.253Z,1.30
2018-11-21T04:24:41.484Z,1.24
2018-11-21T04:27:10.729Z,1.33
2018-11-21T04:29:40.035Z,1.29
2018-11-21T04:32:09.228Z,1.19
2018-11-21T04:34:38.412Z,1.30
2018-11-21T04:37:07.748Z,1.15
2018-11-21T04:39:36.905Z,1.23
2018-11-21T04:42:06.478Z,1.14
2018-11-21T04:44:35.722Z,1.17
2018-11-21T04:47:05.026Z,1.15
2018-11-21T04:49:34.323Z,1.08
2018-11-21T04:52:03.619Z,1.16
2018-11-21T04:54:33.145Z,1.12
2018-11-21T04:57:02.296Z,1.05
2018-11-21T04:59:31.516Z,1.11
2018-11-21T05:02:01.177Z,1.20
2018-11-21T05:04:30.516Z,1.31
2018-11-21T05:07:00.292Z,0.60
2018-11-21T05:09:29.491Z,1.30
2018-11-21T05:11:58.847Z,1.46
2018-11-21T05:14:28.028Z,1.54
2018-11-21T05:16:58.080Z,1.69
2018-11-21T05:19:26.389Z,1.59
2018-11-21T05:21:55.599Z,1.43
2018-11-21T05:24:24.779Z,1.48
2018-11-21T05:26:54.008Z,1.30
2018-11-21T05:29:23.208Z,1.33
2018-11-21T05:31:52.437Z,1.43
2018-11-21T05:34:21.715Z,1.60
2018-11-21T05:36:50.971Z,1.58
2018-11-21T05:39:20.170Z,1.30
2018-11-21T05:41:49.378Z,1.22
2018-11-21T05:44:18.543Z,1.35
2018-11-21T05:46:53.452Z,1.51
2018-11-21T05:49:16.980Z,1.59
2018-11-21T05:51:46.191Z,1.43
2018-11-21T05:54:15.384Z,1.52
2018-11-21T05:56:44.760Z,1.44
2018-11-21T05:59:13.986Z,1.54
2018-11-21T06:01:43.175Z,1.47
2018-11-21T06:04:12.338Z,1.42
2018-11-21T06:06:41.530Z,1.25
2018-11-21T06:09:12.215Z,1.17
2018-11-21T06:11:42.422Z,1.23
2018-11-21T06:14:11.720Z,1.27
2018-11-21T06:16:40.956Z,1.24
2018-11-21T06:19:10.219Z,1.00
2018-11-21T06:21:39.422Z,1.14
2018-11-21T06:24:08.575Z,1.25
2018-11-21T06:26:37.945Z,1.30
2018-11-21T06:29:07.107Z,1.12
2018-11-21T06:31:37.256Z,0.91
2018-11-21T06:34:06.441Z,0.99
2018-11-21T06:36:35.722Z,0.93
2018-11-21T06:39:06.561Z,0.96
2018-11-21T06:41:35.755Z,1.06
2018-11-21T06:44:04.906Z,0.93
2018-11-21T06:46:34.121Z,0.90
2018-11-21T06:49:03.348Z,1.02
2018-11-21T06:51:35.292Z,0.97
2018-11-21T06:54:02.563Z,0.92
2018-11-21T06:56:31.749Z,0.79
2018-11-21T06:59:00.989Z,0.96
2018-11-21T07:01:30.928Z,1.03
2018-11-21T07:04:00.193Z,0.98
2018-11-21T07:06:29.405Z,1.08
2018-11-21T07:08:58.613Z,1.00
2018-11-21T07:11:28.266Z,1.11
2018-11-21T07:13:57.449Z,0.98
2018-11-21T07:16:26.865Z,0.86
2018-11-21T07:18:56.411Z,0.83
2018-11-21T07:21:25.625Z,0.77
2018-11-21T07:23:54.964Z,0.82
2018-11-21T07:26:24.239Z,0.89
2018-11-21T07:28:53.391Z,0.81
2018-11-21T07:31:22.869Z,0.83
2018-11-21T07:33:52.053Z,0.93
2018-11-21T07:36:21.627Z,0.98
2018-11-21T07:38:51.170Z,1.14
2018-11-21T07:41:20.472Z,1.22
2018-11-21T07:43:49.769Z,1.25
2018-11-21T07:46:18.976Z,1.14
2018-11-21T07:48:48.176Z,1.28
2018-11-21T07:51:17.590Z,1.41
2018-11-21T07:53:46.831Z,1.30
2018-11-21T07:57:13.610Z,1.29
2018-11-21T08:00:20.262Z,1.38
2018-11-21T08:02:49.478Z,1.43
2018-11-21T08:05:29.459Z,1.24
2018-11-21T08:08:08.330Z,1.15
2018-11-21T08:10:56.597Z,1.15
2018-11-21T08:14:00.633Z,1.05
2018-11-21T08:16:57.966Z,1.20
2018-11-21T08:19:44.571Z,1.19
2018-11-21T08:22:38.939Z,1.47
2018-11-21T08:25:26.298Z,1.41
2018-11-21T08:28:17.595Z,1.26
2018-11-21T08:30:46.762Z,1.29
2018-11-21T08:33:15.982Z,1.28
2018-11-21T08:35:45.602Z,1.17
2018-11-21T08:38:15.205Z,1.23
2018-11-21T08:40:44.499Z,1.34
2018-11-21T08:43:13.719Z,1.44
2018-11-21T08:45:43.100Z,1.22
2018-11-21T08:48:12.941Z,1.33
2018-11-21T08:50:42.105Z,1.33
2018-11-21T08:53:11.344Z,1.22
2018-11-21T08:55:40.897Z,1.15
2018-11-21T08:58:10.328Z,0.58
2018-11-21T09:00:39.530Z,1.04
2018-11-21T09:03:08.837Z,1.10
2018-11-21T09:05:38.110Z,1.12
2018-11-21T09:08:08.151Z,1.47
2018-11-21T09:10:37.422Z,1.48
2018-11-21T09:13:06.681Z,1.26
2018-11-21T09:15:35.855Z,1.27
2018-11-21T09:18:05.334Z,1.28
2018-11-21T09:20:34.533Z,1.38
2018-11-21T09:23:03.813Z,1.31
2018-11-21T09:25:33.055Z,1.42
2018-11-21T09:28:02.374Z,1.43
2018-11-21T09:30:31.642Z,1.80
2018-11-21T09:33:01.420Z,1.89
2018-11-21T09:35:31.548Z,2.44
2018-11-21T09:38:00.734Z,3.14
2018-11-21T09:40:30.036Z,3.25
2018-11-21T09:42:59.224Z,3.41
2018-11-21T09:45:28.447Z,3.35
2018-11-21T09:47:57.788Z,3.33
2018-11-21T09:50:28.767Z,3.73
2018-11-21T09:52:57.943Z,3.88
2018-11-21T09:55:27.268Z,3.67
2018-11-21T09:57:56.879Z,3.10
2018-11-21T10:01:03.238Z,3.35
2018-11-21T10:03:34.005Z,3.76
2018-11-21T10:06:09.295Z,3.99
2018-11-21T10:08:46.089Z,3.89
2018-11-21T10:11:15.681Z,4.10
2018-11-21T10:13:45.013Z,4.17
2018-11-21T10:16:14.296Z,4.11
2018-11-21T10:18:45.249Z,3.83
2018-11-21T10:21:15.965Z,3.94
2018-11-21T10:23:45.333Z,3.87
2018-11-21T10:26:14.978Z,3.60
2018-11-21T10:28:44.733Z,3.50
2018-11-21T10:31:13.916Z,3.64
2018-11-21T10:33:43.282Z,3.28
2018-11-21T10:36:12.710Z,3.07
2018-11-21T10:38:42.117Z,3.45
2018-11-21T10:41:11.337Z,3.47
2018-11-21T10:43:40.684Z,3.38
2018-11-21T10:46:09.980Z,3.96
2018-11-21T10:48:39.173Z,3.36
2018-11-21T10:51:08.830Z,3.03
2018-11-21T10:53:38.287Z,3.31
2018-11-21T10:56:07.918Z,3.11
2018-11-21T10:58:37.500Z,3.01
2018-11-21T11:01:24.922Z,3.17
2018-11-21T11:04:06.720Z,3.17
2018-11-21T11:06:53.942Z,3.20
2018-11-21T11:09:41.672Z,2.80
2018-11-21T11:12:35.949Z,2.54
2018-11-21T11:15:36.448Z,2.90
2018-11-21T11:18:23.494Z,2.91
2018-11-21T11:21:18.106Z,2.73
2018-11-21T11:24:06.432Z,3.02
2018-11-21T11:27:09.932Z,3.29
2018-11-21T11:30:16.697Z,3.08
2018-11-21T11:33:10.891Z,3.28
2018-11-21T11:36:08.453Z,2.79
2018-11-21T11:38:55.878Z,2.51
2018-11-21T11:41:44.167Z,2.15
2018-11-21T11:44:31.237Z,2.02
2018-11-21T11:47:28.698Z,2.31
2018-11-21T11:50:08.283Z,2.30
2018-11-21T11:53:04.777Z,2.05
2018-11-21T11:55:52.100Z,2.22
2018-11-21T11:58:40.498Z,2.48
2018-11-21T12:01:40.971Z,2.65
2018-11-21T12:04:38.228Z,2.68
2018-11-21T12:07:25.424Z,2.88
2018-11-21T12:10:12.565Z,2.61
2018-11-21T12:13:00.087Z,2.88
2018-11-21T12:16:03.596Z,3.03
2018-11-21T12:19:00.686Z,2.33
2018-11-21T12:21:55.128Z,2.38
2018-11-21T12:24:42.245Z,2.83
2018-11-21T12:27:34.492Z,2.75
2018-11-21T12:30:17.122Z,2.83
2018-11-21T12:33:20.803Z,3.14
2018-11-21T12:36:07.511Z,2.78
2018-11-21T12:38:54.761Z,3.04
2018-11-21T12:41:46.254Z,2.74
2018-11-21T12:44:24.240Z,2.69
2018-11-21T12:47:11.364Z,2.39
2018-11-21T12:49:58.647Z,2.64
2018-11-21T12:52:46.882Z,2.67
2018-11-21T12:55:45.544Z,2.92
2018-11-21T12:58:33.042Z,2.76
2018-11-21T13:01:20.365Z,2.71
2018-11-21T13:03:55.915Z,2.78
2018-11-21T13:06:46.814Z,2.52
2018-11-21T13:09:34.238Z,2.18
2018-11-21T13:12:28.729Z,2.16
2018-11-21T13:15:29.364Z,2.28
2018-11-21T13:18:20.677Z,2.68
2018-11-21T13:21:05.977Z,2.35
2018-11-21T13:23:44.363Z,2.08
2018-11-21T13:26:44.794Z,2.03
2018-11-21T13:29:31.914Z,1.94
2018-11-21T13:32:19.587Z,2.01
2018-11-21T13:35:06.864Z,2.48
2018-11-21T13:37:54.181Z,2.69
2018-11-21T13:40:57.887Z,3.16
2018-11-21T13:43:45.110Z,3.28
2018-11-21T13:46:36.429Z,2.97
2018-11-21T13:49:39.921Z,3.13
2018-11-21T13:52:27.142Z,3.24
2018-11-21T13:54:57.818Z,2.79
2018-11-21T13:57:27.481Z,3.07
2018-11-21T13:59:56.983Z,3.27
2018-11-21T14:02:26.391Z,3.09
2018-11-21T14:04:56.196Z,2.33
2018-11-21T14:07:25.456Z,2.17
2018-11-21T14:09:54.694Z,2.38
2018-11-21T14:12:24.312Z,2.29
2018-11-21T14:14:53.500Z,2.60
2018-11-21T14:17:27.508Z,2.33
2018-11-21T14:19:52.406Z,2.47
2018-11-21T14:22:22.159Z,2.60
2018-11-21T14:24:51.581Z,2.79
2018-11-21T14:27:20.811Z,3.22
2018-11-21T14:29:50.177Z,3.62
2018-11-21T14:32:20.379Z,3.35
2018-11-21T14:34:49.550Z,2.88
2018-11-21T14:37:19.135Z,2.93
2018-11-21T14:39:48.328Z,2.87
2018-11-21T14:42:17.557Z,3.00
2018-11-21T14:44:47.036Z,2.37
2018-11-21T14:47:17.117Z,2.70
2018-11-21T14:49:49.931Z,2.38
2018-11-21T14:52:19.271Z,2.61
2018-11-21T14:54:48.467Z,3.01
2018-11-21T14:57:18.037Z,2.80
2018-11-21T14:59:47.641Z,2.59
2018-11-21T15:02:17.118Z,2.51
2018-11-21T15:04:46.342Z,2.11
2018-11-21T15:07:15.705Z,2.19
2018-11-21T15:09:44.945Z,2.45
2018-11-21T15:12:14.240Z,2.59
2018-11-21T15:14:43.743Z,2.41
2018-11-21T15:17:12.939Z,2.06
2018-11-21T15:19:42.150Z,1.98
2018-11-21T15:22:11.375Z,2.16
2018-11-21T15:24:40.943Z,2.04
2018-11-21T15:27:10.442Z,2.20
2018-11-21T15:29:39.760Z,2.16
2018-11-21T15:32:09.011Z,2.01
2018-11-21T15:34:38.636Z,1.99
2018-11-21T15:37:10.710Z,1.90
2018-11-21T15:39:40.200Z,1.69
2018-11-21T15:42:10.232Z,1.53
2018-11-21T15:44:39.536Z,1.45
2018-11-21T15:47:08.874Z,1.95
2018-11-21T15:49:38.333Z,2.14
2018-11-21T15:52:07.536Z,2.38
2018-11-21T15:54:36.931Z,2.67
2018-11-21T15:57:06.294Z,2.65
2018-11-21T15:59:35.528Z,2.84
2018-11-21T16:02:04.788Z,2.98
2018-11-21T16:04:34.129Z,2.81
2018-11-21T16:07:03.346Z,2.96
2018-11-21T16:09:32.839Z,2.57
2018-11-21T16:12:02.309Z,2.49
2018-11-21T16:14:31.995Z,1.96
2018-11-21T16:17:01.651Z,2.28
2018-11-21T16:19:31.326Z,2.29
2018-11-21T16:22:01.047Z,2.81
2018-11-21T16:24:31.240Z,3.42
2018-11-21T16:27:01.045Z,3.58
2018-11-21T16:29:36.548Z,3.24
2018-11-21T16:32:00.293Z,3.07
2018-11-21T16:34:29.970Z,3.22
2018-11-21T16:36:59.643Z,3.09
2018-11-21T16:39:29.413Z,2.67
2018-11-21T16:41:59.136Z,2.47
2018-11-21T16:44:28.802Z,2.24
2018-11-21T16:46:58.442Z,1.92
2018-11-21T16:49:28.531Z,2.04
2018-11-21T16:51:58.304Z,1.83
2018-11-21T16:54:27.946Z,1.91
2018-11-21T16:56:57.622Z,1.74
2018-11-21T16:59:27.298Z,2.08
2018-11-21T17:01:56.972Z,2.27
2018-11-21T17:04:26.610Z,2.22
2018-11-21T17:06:56.424Z,1.88
2018-11-21T17:09:27.651Z,2.05
2018-11-21T17:11:57.886Z,1.92
2018-11-21T17:14:27.569Z,1.57
2018-11-21T17:16:57.302Z,1.85
2018-11-21T17:19:26.990Z,1.83
2018-11-21T17:21:56.600Z,1.91
2018-11-21T17:24:26.300Z,1.48
2018-11-21T17:26:56.255Z,1.59
2018-11-21T17:29:25.921Z,1.38
2018-11-21T17:31:55.661Z,1.33
2018-11-21T17:34:25.747Z,1.54
2018-11-21T17:36:55.789Z,1.63
2018-11-21T17:39:25.382Z,1.56
2018-11-21T17:41:55.181Z,1.53
2018-11-21T17:44:28.896Z,1.61
2018-11-21T17:46:58.654Z,1.62
2018-11-21T17:49:28.300Z,1.68
2018-11-21T17:51:58.141Z,1.56
2018-11-21T17:54:27.829Z,1.69
2018-11-21T17:56:57.668Z,1.84
2018-11-21T17:59:27.851Z,1.75
2018-11-21T18:01:57.491Z,1.48
2018-11-21T18:04:27.384Z,1.65
2018-11-21T18:06:57.474Z,1.64
2018-11-21T18:09:28.102Z,1.83
2018-11-21T18:11:57.930Z,1.59
2018-11-21T18:14:27.605Z,1.95
2018-11-21T18:16:57.279Z,2.30
2018-11-21T18:19:27.471Z,2.03
2018-11-21T18:21:57.219Z,2.06
2018-11-21T18:24:26.883Z,2.38
2018-11-21T18:26:56.751Z,2.97
2018-11-21T18:29:26.457Z,2.98
2018-11-21T18:31:56.247Z,2.70
2018-11-21T18:34:25.926Z,2.55
2018-11-21T18:36:55.563Z,2.31
2018-11-21T18:39:25.302Z,2.14
2018-11-21T18:41:57.960Z,2.39
2018-11-21T18:44:24.746Z,2.07
2018-11-21T18:46:54.370Z,1.86
2018-11-21T18:49:24.012Z,1.79
2018-11-21T18:51:53.747Z,1.73
2018-11-21T18:54:23.428Z,1.59
2018-11-21T18:57:36.848Z,1.65
2018-11-21T19:00:11.412Z,1.56
2018-11-21T19:02:41.221Z,1.58
